Sao Vicente Ferrer, Brazil
Current Conditions -  °F | °C
As of 10:00 AM on Monday 22 Dec 2014 (Local Time) from SBSL Reporting Station
Scattered Clouds Scattered Clouds  
Wind Chill: 86°   Ceiling: Unl
Heat Index: 90°   Visibility: 6mi
Dew Point: 70°   Wind: 15mph
Humidity: 58%   Direction: 70°ENE
Pressure: 29.91"   Gusts: NA
Location:  2.89°S, 44.88°W
Report Text: SBSL 221300Z 07013KT 9999 SCT017 30/21 Q1013
Loading
Personal Weather Stations






























Interactive Weather Map New forecast layout! Learn more

10-Day Weather Forecast

Advertisements
Track Severe Weather on mobile